CYGX

Details ICAO CYGX (YGX)
Name Gillam
Region Canada
Timezone America/Winnipeg (UTC-6.0)
Plans Departing 2
Arriving 3
Stats Elevation 476 ft / 145 m (AMSL)
Location 56.357830° -94.710327°
Runways 1
Magnetic Variation 0.509° W
Sunrise 2017-12-17 14:49:57 UTC / 2017-12-17 08:49:57 Local
Sunset 2017-12-17 21:42:58 UTC / 2017-12-17 15:42:58 Local
Advertisement - Login to hide

Runways

ID Width Length Bearing (true) Bearing (mag) Surface Threshold Offset Overrun Length
05 150 ft / 46 m 5,005 ft / 1,525 m 48.99° 49.50° Gravel 0 ft / 0 m 0 ft / 0 m
23 150 ft / 46 m 5,005 ft / 1,525 m 229.01° 229.52° Gravel 0 ft / 0 m 0 ft / 0 m

Map

Weather


0- 5 10 15 20 25 30 35+ Temperature / ° C

Clouds and Precipitation
Forecast for 2017-12-18 06:00 UTC. Updated 15 minutes ago

Ground ~20,000 ft ~40,000 ft Winds

METAR

CYGX 180300Z 13005KT 15SM OVC007 M11/M12 A2932 RMK ST8 SLP945

TAF

TAF AMD TAF AMD CYGX 180314Z 1803/1813 14005KT P6SM -SN SCT006 OVC030 TEMPO 1803/1806 4SM -SN OVC006 FM180600 20008KT P6SM -SN SCT007 OVC015 TEMPO 1806/1813 2SM -SN BR VV007 RMK NXT FCST BY 180700Z
Warning: Do not use this data for real-world aviation or navigation. No guarantee of current accuracy is given.